createdAt,value
2022-09-23T00:00:37.975Z,99.90
2022-09-23T00:05:40.295Z,99.90
2022-09-23T00:10:43.707Z,99.90
2022-09-23T00:15:46.850Z,99.90
2022-09-23T00:20:49.674Z,99.90
2022-09-23T00:26:01.837Z,99.90
2022-09-23T00:31:04.355Z,99.90
2022-09-23T00:36:11.097Z,99.90
2022-09-23T00:41:16.188Z,99.90
2022-09-23T00:46:21.737Z,99.90
2022-09-23T00:51:25.990Z,99.90
2022-09-23T00:56:30.806Z,99.90
2022-09-23T01:01:33.076Z,99.90
2022-09-23T01:06:35.148Z,99.90
2022-09-23T01:11:47.547Z,99.90
2022-09-23T01:16:55.643Z,99.90
2022-09-23T01:22:04.997Z,99.90
2022-09-23T01:27:16.119Z,99.90
2022-09-23T01:32:26.380Z,99.90
2022-09-23T01:37:37.032Z,99.90
2022-09-23T01:42:43.963Z,99.90
2022-09-23T01:47:53.055Z,99.90
2022-09-23T01:52:59.375Z,99.90
2022-09-23T01:58:07.013Z,99.90
2022-09-23T02:03:15.761Z,99.90
2022-09-23T02:08:22.126Z,99.90
2022-09-23T02:13:31.020Z,99.90
2022-09-23T02:18:42.183Z,99.90
2022-09-23T02:23:50.943Z,99.90
2022-09-23T02:29:01.916Z,99.90
2022-09-23T02:34:19.613Z,99.90
2022-09-23T02:39:30.623Z,99.90
2022-09-23T02:44:33.057Z,99.90
2022-09-23T02:49:36.636Z,99.90
2022-09-23T02:54:39.320Z,99.90
2022-09-23T02:59:42.080Z,99.90
2022-09-23T03:04:53.606Z,99.90
2022-09-23T03:10:01.429Z,99.90
2022-09-23T03:15:16.532Z,99.90
2022-09-23T03:20:28.141Z,99.90
2022-09-23T03:25:33.680Z,99.90
2022-09-23T03:30:37.691Z,99.90
2022-09-23T03:36:02.645Z,99.90
2022-09-23T03:41:06.383Z,99.90
2022-09-23T03:46:09.306Z,99.90
2022-09-23T03:51:22.740Z,99.90
2022-09-23T03:56:24.790Z,99.90
2022-09-23T04:01:26.898Z,99.90
2022-09-23T04:06:31.370Z,99.90
2022-09-23T04:11:33.422Z,99.90
2022-09-23T04:16:35.533Z,99.90
2022-09-23T04:21:39.563Z,99.90
2022-09-23T04:26:41.989Z,99.90
2022-09-23T04:31:44.022Z,99.90
2022-09-23T04:36:48.579Z,99.90
2022-09-23T04:41:50.612Z,99.90
2022-09-23T04:46:52.691Z,99.90
2022-09-23T04:51:56.468Z,99.90
2022-09-23T04:56:58.505Z,99.90
2022-09-23T05:02:00.570Z,99.90
2022-09-23T05:07:04.327Z,99.90
2022-09-23T05:12:07.080Z,99.90
2022-09-23T05:17:09.116Z,99.90
2022-09-23T05:22:12.548Z,99.90
2022-09-23T05:27:14.656Z,99.90
2022-09-23T05:32:17.463Z,99.90
2022-09-23T05:37:20.822Z,99.90
2022-09-23T05:42:22.845Z,99.90
2022-09-23T05:47:25.264Z,99.90
2022-09-23T05:52:28.638Z,99.90
2022-09-23T05:57:30.694Z,99.90
2022-09-23T06:02:33.218Z,99.90
2022-09-23T06:07:38.168Z,99.90
2022-09-23T06:12:40.517Z,99.90
2022-09-23T06:17:42.572Z,99.90
2022-09-23T06:22:46.046Z,99.90
2022-09-23T06:27:55.429Z,99.90
2022-09-23T06:33:04.117Z,99.90
2022-09-23T06:38:07.623Z,99.90
2022-09-23T06:43:10.355Z,99.90
2022-09-23T06:48:12.521Z,99.90
2022-09-23T06:53:16.169Z,99.90
2022-09-23T06:58:18.621Z,99.90
2022-09-23T07:03:21.025Z,99.90
2022-09-23T07:08:24.978Z,99.90
2022-09-23T07:13:28.200Z,99.90
2022-09-23T07:18:36.436Z,99.90
2022-09-23T07:23:40.244Z,99.90
2022-09-23T07:28:42.549Z,99.90
2022-09-23T07:33:44.792Z,99.90
2022-09-23T07:38:48.544Z,99.90
2022-09-23T07:43:52.747Z,99.90
2022-09-23T07:48:55.932Z,99.90
2022-09-23T07:53:59.737Z,99.90
2022-09-23T07:59:01.864Z,99.90
2022-09-23T08:04:06.803Z,99.90
2022-09-23T08:09:11.185Z,99.90
2022-09-23T08:14:14.550Z,99.90
2022-09-23T08:19:17.346Z,99.90
2022-09-23T08:24:24.294Z,99.90
2022-09-23T08:29:27.555Z,99.90
2022-09-23T08:34:29.707Z,99.90
2022-09-23T08:39:33.129Z,99.90
2022-09-23T08:44:48.817Z,99.90
2022-09-23T08:49:59.543Z,99.90
2022-09-23T08:55:07.273Z,99.90
2022-09-23T09:00:20.062Z,99.90
2022-09-23T09:05:28.588Z,99.90
2022-09-23T09:10:39.099Z,99.20
2022-09-23T09:15:45.819Z,99.20
2022-09-23T09:20:54.941Z,98.60
2022-09-23T09:26:02.325Z,97.80
2022-09-23T09:31:24.019Z,97.00
2022-09-23T09:36:43.510Z,96.80
2022-09-23T09:41:51.999Z,96.10
2022-09-23T09:47:07.677Z,94.30
2022-09-23T09:52:21.162Z,94.30
2022-09-23T09:57:36.445Z,92.20
2022-09-23T10:02:40.799Z,91.80
2022-09-23T10:07:42.825Z,90.50
2022-09-23T10:12:48.285Z,87.50
2022-09-23T10:17:52.434Z,94.90
2022-09-23T10:22:56.807Z,90.50
2022-09-23T10:28:03.636Z,87.80
2022-09-23T10:33:28.081Z,86.40
2022-09-23T10:38:30.207Z,82.80
2022-09-23T10:44:00.906Z,77.80
2022-09-23T10:49:28.371Z,76.10
2022-09-23T10:54:41.637Z,71.30
2022-09-23T10:59:59.671Z,72.80
2022-09-23T11:05:32.568Z,67.90
2022-09-23T11:11:01.554Z,66.70
2022-09-23T11:16:20.842Z,62.60
2022-09-23T11:21:51.953Z,61.70
2022-09-23T11:27:05.052Z,60.70
2022-09-23T11:32:39.678Z,59.50
2022-09-23T11:37:45.734Z,58.00
2022-09-23T11:42:54.491Z,53.10
2022-09-23T11:48:00.892Z,53.30
2022-09-23T11:53:09.926Z,54.50
2022-09-23T11:58:25.209Z,52.70
2022-09-23T12:03:44.426Z,53.70
2022-09-23T12:08:47.283Z,51.20
2022-09-23T12:13:59.397Z,52.00
2022-09-23T12:19:14.909Z,50.50
2022-09-23T12:24:28.617Z,51.80
2022-09-23T12:29:32.627Z,50.80
2022-09-23T12:34:44.126Z,47.30
2022-09-23T12:39:47.952Z,47.20
2022-09-23T12:44:50.754Z,48.00
2022-09-23T12:49:54.836Z,46.10
2022-09-23T12:54:58.956Z,45.70
2022-09-23T13:00:15.510Z,44.60
2022-09-23T13:05:41.526Z,43.80
2022-09-23T13:10:48.404Z,42.90
2022-09-23T13:15:50.829Z,44.70
2022-09-23T13:20:56.892Z,42.60
2022-09-23T13:26:01.897Z,42.60
2022-09-23T13:31:06.442Z,42.50
2022-09-23T13:36:14.863Z,41.70
2022-09-23T13:41:20.481Z,40.50
2022-09-23T13:46:24.671Z,39.70
2022-09-23T13:51:31.106Z,40.70
2022-09-23T13:56:35.444Z,40.10
2022-09-23T14:01:38.445Z,39.70
2022-09-23T14:06:42.783Z,43.90
2022-09-23T14:11:51.709Z,43.00
2022-09-23T14:16:54.602Z,42.70
2022-09-23T14:21:58.930Z,39.60
2022-09-23T14:27:05.129Z,39.40
2022-09-23T14:32:12.119Z,41.10
2022-09-23T14:37:41.554Z,39.60
2022-09-23T14:42:46.421Z,40.30
2022-09-23T14:47:54.290Z,40.40
2022-09-23T14:52:57.724Z,41.80
2022-09-23T14:58:07.155Z,44.30
2022-09-23T15:03:16.078Z,44.80
2022-09-23T15:08:22.194Z,45.80
2022-09-23T15:13:28.658Z,47.90
2022-09-23T15:18:34.490Z,47.00
2022-09-23T15:23:45.638Z,47.90
2022-09-23T15:28:48.681Z,50.90
2022-09-23T15:33:51.852Z,49.20
2022-09-23T15:38:57.280Z,50.00
2022-09-23T15:43:59.735Z,50.20
2022-09-23T15:49:05.806Z,50.50
2022-09-23T15:54:13.735Z,51.70
2022-09-23T15:59:15.730Z,52.20
2022-09-23T16:04:17.990Z,53.20
2022-09-23T16:09:21.404Z,53.80
2022-09-23T16:14:23.837Z,54.20
2022-09-23T16:19:26.290Z,55.40
2022-09-23T16:24:31.112Z,56.10
2022-09-23T16:29:33.200Z,55.70
2022-09-23T16:34:35.355Z,56.80
2022-09-23T16:39:39.075Z,57.10
2022-09-23T16:44:41.963Z,58.30
2022-09-23T16:49:44.064Z,58.90
2022-09-23T16:54:48.571Z,60.00
2022-09-23T17:00:08.192Z,60.70
2022-09-23T17:05:12.503Z,62.20
2022-09-23T17:10:18.984Z,63.30
2022-09-23T17:15:21.058Z,63.90
2022-09-23T17:20:23.132Z,64.20
2022-09-23T17:25:26.660Z,65.60
2022-09-23T17:30:28.861Z,66.10
2022-09-23T17:35:30.899Z,66.40
2022-09-23T17:40:35.766Z,67.00
2022-09-23T17:45:38.104Z,67.80
2022-09-23T17:50:40.163Z,68.30
2022-09-23T17:55:43.563Z,72.00
2022-09-23T18:00:47.389Z,73.90
2022-09-23T18:05:49.793Z,74.80
2022-09-23T18:10:53.273Z,78.90
2022-09-23T18:15:55.627Z,80.60
2022-09-23T18:21:01.711Z,81.30
2022-09-23T18:26:05.607Z,83.20
2022-09-23T18:31:08.062Z,83.70
2022-09-23T18:36:13.517Z,84.40
2022-09-23T18:41:26.171Z,85.70
2022-09-23T18:46:31.494Z,87.90
2022-09-23T18:51:38.247Z,89.20
2022-09-23T18:56:43.806Z,89.90
2022-09-23T19:01:46.768Z,90.40
2022-09-23T19:06:49.773Z,91.60
2022-09-23T19:11:53.855Z,92.30
2022-09-23T19:16:56.147Z,92.50
2022-09-23T19:21:58.295Z,91.80
2022-09-23T19:27:03.416Z,92.50
2022-09-23T19:32:05.554Z,93.90
2022-09-23T19:37:07.895Z,94.40
2022-09-23T19:42:14.054Z,94.80
2022-09-23T19:47:17.991Z,96.00
2022-09-23T19:52:20.154Z,96.60
2022-09-23T19:57:23.581Z,96.50
2022-09-23T20:02:25.910Z,96.70
2022-09-23T20:07:28.652Z,96.40
2022-09-23T20:12:35.429Z,97.70
2022-09-23T20:17:38.399Z,97.40
2022-09-23T20:22:40.661Z,97.50
2022-09-23T20:27:44.433Z,97.50
2022-09-23T20:32:47.126Z,97.30
2022-09-23T20:37:49.328Z,97.60
2022-09-23T20:42:53.104Z,97.00
2022-09-23T20:47:55.945Z,97.10
2022-09-23T20:52:58.163Z,98.90
2022-09-23T20:58:03.791Z,97.40
2022-09-23T21:03:06.470Z,97.10
2022-09-23T21:08:09.042Z,97.30
2022-09-23T21:13:12.669Z,97.80
2022-09-23T21:18:18.125Z,97.90
2022-09-23T21:23:26.291Z,98.00
2022-09-23T21:28:33.141Z,98.30
2022-09-23T21:33:37.612Z,98.30
2022-09-23T21:38:40.263Z,98.50
2022-09-23T21:43:43.762Z,98.30
2022-09-23T21:48:46.871Z,98.40
2022-09-23T21:53:49.335Z,98.70
2022-09-23T21:58:54.710Z,99.10
2022-09-23T22:03:58.546Z,99.30
2022-09-23T22:09:02.457Z,99.40
2022-09-23T22:14:08.736Z,99.80
2022-09-23T22:19:12.678Z,99.90
2022-09-23T22:24:14.999Z,99.90
2022-09-23T22:29:37.090Z,99.90
2022-09-23T22:34:55.657Z,99.90
2022-09-23T22:39:57.812Z,99.90
2022-09-23T22:45:01.475Z,99.90
2022-09-23T22:50:03.615Z,99.90
2022-09-23T22:55:08.157Z,99.90
2022-09-23T23:00:13.941Z,99.90
2022-09-23T23:05:16.068Z,99.90
2022-09-23T23:10:19.234Z,99.90
2022-09-23T23:15:25.067Z,99.90
2022-09-23T23:20:27.996Z,99.90
2022-09-23T23:25:30.415Z,99.90
2022-09-23T23:30:34.318Z,99.90
2022-09-23T23:35:36.341Z,99.90
2022-09-23T23:40:38.747Z,99.90
2022-09-23T23:45:43.672Z,99.90
2022-09-23T23:50:52.298Z,99.90
2022-09-23T23:55:54.366Z,99.90
